Martha's Vineyard, Massachusetts
Current Conditions -  °F | °C
As of 10:53 AM on Sunday 21 Dec 2014 (Local Time) from KMVY Reporting Station
Overcast Overcast  
Wind Chill: 35°   Ceiling: 5500
Heat Index: 41°   Visibility: 10mi
Dew Point: 34°   Wind: 9mph
Humidity: 76%   Direction: 40°NE
Pressure: 30.27"   Gusts: NA
Location:  41.39°N, 70.61°W
Report Text: KMVY 211553Z 04008KT 10SM OVC055 05/01 A3027 RMK AO2 SLP250 T00500011
Loading
Personal Weather Stations






























Interactive Weather Map New forecast layout! Learn more

10-Day Weather Forecast

Advertisements
Track Severe Weather on mobile